sensor_id;sensor_type;location;lat;lon;timestamp;P1;durP1;ratioP1;P2;durP2;ratioP2
79229;SDS011;68663;49.122;17.544;2023-10-19T00:02:04;2.38;;;1.83;;
79229;SDS011;68663;49.122;17.544;2023-10-19T00:04:30;2.30;;;1.80;;
79229;SDS011;68663;49.122;17.544;2023-10-19T00:06:57;2.78;;;2.00;;
79229;SDS011;68663;49.122;17.544;2023-10-19T00:09:23;2.42;;;1.83;;
79229;SDS011;68663;49.122;17.544;2023-10-19T00:11:50;3.13;;;2.10;;
79229;SDS011;68663;49.122;17.544;2023-10-19T00:14:17;2.40;;;1.92;;
79229;SDS011;68663;49.122;17.544;2023-10-19T00:16:43;2.50;;;1.92;;
79229;SDS011;68663;49.122;17.544;2023-10-19T00:19:16;2.72;;;1.90;;
79229;SDS011;68663;49.122;17.544;2023-10-19T00:21:44;4.28;;;2.58;;
79229;SDS011;68663;49.122;17.544;2023-10-19T00:24:20;3.22;;;1.90;;
79229;SDS011;68663;49.122;17.544;2023-10-19T00:26:48;3.53;;;2.10;;
79229;SDS011;68663;49.122;17.544;2023-10-19T00:29:13;2.60;;;1.90;;
79229;SDS011;68663;49.122;17.544;2023-10-19T00:31:54;2.50;;;2.10;;
79229;SDS011;68663;49.122;17.544;2023-10-19T00:34:21;2.70;;;1.83;;
79229;SDS011;68663;49.122;17.544;2023-10-19T00:36:47;3.65;;;2.00;;
79229;SDS011;68663;49.122;17.544;2023-10-19T00:39:15;3.20;;;1.67;;
79229;SDS011;68663;49.122;17.544;2023-10-19T00:41:46;3.58;;;2.25;;
79229;SDS011;68663;49.122;17.544;2023-10-19T00:44:12;2.33;;;1.70;;
79229;SDS011;68663;49.122;17.544;2023-10-19T00:46:42;2.30;;;2.03;;
79229;SDS011;68663;49.122;17.544;2023-10-19T00:49:12;2.53;;;1.85;;
79229;SDS011;68663;49.122;17.544;2023-10-19T00:51:40;2.70;;;2.00;;
79229;SDS011;68663;49.122;17.544;2023-10-19T00:57:07;2.85;;;2.05;;
79229;SDS011;68663;49.122;17.544;2023-10-19T00:59:37;2.28;;;1.70;;
79229;SDS011;68663;49.122;17.544;2023-10-19T01:02:13;2.83;;;2.05;;
79229;SDS011;68663;49.122;17.544;2023-10-19T01:04:50;2.15;;;1.83;;
79229;SDS011;68663;49.122;17.544;2023-10-19T01:07:46;2.20;;;1.85;;
79229;SDS011;68663;49.122;17.544;2023-10-19T01:10:12;2.47;;;1.90;;
79229;SDS011;68663;49.122;17.544;2023-10-19T01:12:45;3.08;;;2.03;;
79229;SDS011;68663;49.122;17.544;2023-10-19T01:15:11;2.95;;;2.00;;
79229;SDS011;68663;49.122;17.544;2023-10-19T01:17:53;2.30;;;1.70;;
79229;SDS011;68663;49.122;17.544;2023-10-19T01:20:26;2.30;;;1.80;;
79229;SDS011;68663;49.122;17.544;2023-10-19T01:28:08;2.33;;;1.90;;
79229;SDS011;68663;49.122;17.544;2023-10-19T01:30:34;2.40;;;1.60;;
79229;SDS011;68663;49.122;17.544;2023-10-19T01:33:04;2.40;;;2.05;;
79229;SDS011;68663;49.122;17.544;2023-10-19T01:35:37;2.78;;;2.10;;
79229;SDS011;68663;49.122;17.544;2023-10-19T01:38:23;2.38;;;1.92;;
79229;SDS011;68663;49.122;17.544;2023-10-19T01:40:50;2.38;;;1.80;;
79229;SDS011;68663;49.122;17.544;2023-10-19T01:43:16;2.78;;;2.03;;
79229;SDS011;68663;49.122;17.544;2023-10-19T01:45:55;1.85;;;1.63;;
79229;SDS011;68663;49.122;17.544;2023-10-19T01:48:21;2.53;;;1.73;;
79229;SDS011;68663;49.122;17.544;2023-10-19T01:51:02;2.20;;;1.95;;
79229;SDS011;68663;49.122;17.544;2023-10-19T01:53:30;2.63;;;2.20;;
79229;SDS011;68663;49.122;17.544;2023-10-19T01:56:01;2.53;;;2.05;;
79229;SDS011;68663;49.122;17.544;2023-10-19T01:58:30;2.58;;;1.98;;
79229;SDS011;68663;49.122;17.544;2023-10-19T02:01:04;2.20;;;1.80;;
79229;SDS011;68663;49.122;17.544;2023-10-19T02:03:40;2.28;;;1.75;;
79229;SDS011;68663;49.122;17.544;2023-10-19T02:06:13;2.28;;;1.98;;
79229;SDS011;68663;49.122;17.544;2023-10-19T02:08:52;2.00;;;1.60;;
79229;SDS011;68663;49.122;17.544;2023-10-19T02:11:25;2.28;;;1.80;;
79229;SDS011;68663;49.122;17.544;2023-10-19T02:13:52;2.60;;;1.90;;
79229;SDS011;68663;49.122;17.544;2023-10-19T02:16:19;2.13;;;1.75;;
79229;SDS011;68663;49.122;17.544;2023-10-19T02:18:49;2.13;;;1.83;;
79229;SDS011;68663;49.122;17.544;2023-10-19T02:21:15;3.22;;;1.98;;
79229;SDS011;68663;49.122;17.544;2023-10-19T02:23:46;3.05;;;2.03;;
79229;SDS011;68663;49.122;17.544;2023-10-19T02:26:15;2.80;;;2.00;;
79229;SDS011;68663;49.122;17.544;2023-10-19T02:28:42;2.38;;;2.10;;
79229;SDS011;68663;49.122;17.544;2023-10-19T02:31:09;2.60;;;1.70;;
79229;SDS011;68663;49.122;17.544;2023-10-19T02:33:43;3.20;;;1.90;;
79229;SDS011;68663;49.122;17.544;2023-10-19T02:36:15;2.13;;;1.90;;
79229;SDS011;68663;49.122;17.544;2023-10-19T02:38:41;2.40;;;2.00;;
79229;SDS011;68663;49.122;17.544;2023-10-19T02:41:14;2.40;;;1.73;;
79229;SDS011;68663;49.122;17.544;2023-10-19T02:43:40;2.38;;;1.92;;
79229;SDS011;68663;49.122;17.544;2023-10-19T02:46:10;2.53;;;1.80;;
79229;SDS011;68663;49.122;17.544;2023-10-19T02:48:38;2.17;;;1.67;;
79229;SDS011;68663;49.122;17.544;2023-10-19T02:51:04;2.80;;;2.00;;
79229;SDS011;68663;49.122;17.544;2023-10-19T02:53:36;2.20;;;1.95;;
79229;SDS011;68663;49.122;17.544;2023-10-19T02:56:09;2.80;;;2.20;;
79229;SDS011;68663;49.122;17.544;2023-10-19T02:58:36;2.65;;;2.00;;
79229;SDS011;68663;49.122;17.544;2023-10-19T03:03:33;2.30;;;1.80;;
79229;SDS011;68663;49.122;17.544;2023-10-19T03:05:58;2.70;;;2.13;;
79229;SDS011;68663;49.122;17.544;2023-10-19T03:08:24;2.80;;;1.85;;
79229;SDS011;68663;49.122;17.544;2023-10-19T03:10:51;2.58;;;2.17;;
79229;SDS011;68663;49.122;17.544;2023-10-19T03:13:28;2.30;;;1.88;;
79229;SDS011;68663;49.122;17.544;2023-10-19T03:15:54;2.35;;;1.75;;
79229;SDS011;68663;49.122;17.544;2023-10-19T03:18:19;2.95;;;2.08;;
79229;SDS011;68663;49.122;17.544;2023-10-19T03:20:45;2.40;;;1.80;;
79229;SDS011;68663;49.122;17.544;2023-10-19T03:23:10;2.30;;;1.83;;
79229;SDS011;68663;49.122;17.544;2023-10-19T03:25:36;2.90;;;1.92;;
79229;SDS011;68663;49.122;17.544;2023-10-19T03:28:20;2.40;;;1.90;;
79229;SDS011;68663;49.122;17.544;2023-10-19T03:30:50;2.72;;;1.92;;
79229;SDS011;68663;49.122;17.544;2023-10-19T03:33:15;2.90;;;1.92;;
79229;SDS011;68663;49.122;17.544;2023-10-19T03:35:43;2.50;;;2.10;;
79229;SDS011;68663;49.122;17.544;2023-10-19T03:38:08;2.30;;;1.88;;
79229;SDS011;68663;49.122;17.544;2023-10-19T03:40:41;4.20;;;1.90;;
79229;SDS011;68663;49.122;17.544;2023-10-19T03:43:10;1.92;;;1.70;;
79229;SDS011;68663;49.122;17.544;2023-10-19T03:45:43;2.22;;;1.70;;
79229;SDS011;68663;49.122;17.544;2023-10-19T03:50:52;2.03;;;1.65;;
79229;SDS011;68663;49.122;17.544;2023-10-19T03:53:20;3.28;;;1.80;;
79229;SDS011;68663;49.122;17.544;2023-10-19T03:55:46;2.25;;;1.70;;
79229;SDS011;68663;49.122;17.544;2023-10-19T03:58:13;2.83;;;2.05;;
79229;SDS011;68663;49.122;17.544;2023-10-19T04:00:38;4.70;;;2.10;;
79229;SDS011;68663;49.122;17.544;2023-10-19T04:03:03;3.22;;;1.85;;
79229;SDS011;68663;49.122;17.544;2023-10-19T04:05:29;4.55;;;2.08;;
79229;SDS011;68663;49.122;17.544;2023-10-19T04:07:56;3.67;;;2.03;;
79229;SDS011;68663;49.122;17.544;2023-10-19T04:10:25;4.80;;;2.55;;
79229;SDS011;68663;49.122;17.544;2023-10-19T04:13:11;5.00;;;2.33;;
79229;SDS011;68663;49.122;17.544;2023-10-19T04:15:37;11.57;;;3.28;;
79229;SDS011;68663;49.122;17.544;2023-10-19T04:18:03;17.98;;;6.90;;
79229;SDS011;68663;49.122;17.544;2023-10-19T04:20:35;25.65;;;7.10;;
79229;SDS011;68663;49.122;17.544;2023-10-19T04:23:07;31.48;;;8.93;;
79229;SDS011;68663;49.122;17.544;2023-10-19T04:28:01;23.45;;;8.05;;
79229;SDS011;68663;49.122;17.544;2023-10-19T04:30:26;25.90;;;8.02;;
79229;SDS011;68663;49.122;17.544;2023-10-19T04:32:52;27.77;;;7.60;;
79229;SDS011;68663;49.122;17.544;2023-10-19T04:35:18;28.90;;;8.00;;
79229;SDS011;68663;49.122;17.544;2023-10-19T04:37:51;25.95;;;7.05;;
79229;SDS011;68663;49.122;17.544;2023-10-19T04:40:18;26.30;;;7.43;;
79229;SDS011;68663;49.122;17.544;2023-10-19T04:42:45;18.83;;;7.55;;
79229;SDS011;68663;49.122;17.544;2023-10-19T04:45:11;22.30;;;7.55;;
79229;SDS011;68663;49.122;17.544;2023-10-19T04:47:38;22.58;;;8.35;;
79229;SDS011;68663;49.122;17.544;2023-10-19T04:50:04;14.52;;;7.25;;
79229;SDS011;68663;49.122;17.544;2023-10-19T04:52:30;12.45;;;6.13;;
79229;SDS011;68663;49.122;17.544;2023-10-19T04:54:56;14.85;;;6.18;;
79229;SDS011;68663;49.122;17.544;2023-10-19T04:57:23;17.55;;;6.97;;
79229;SDS011;68663;49.122;17.544;2023-10-19T04:59:48;15.27;;;6.05;;
79229;SDS011;68663;49.122;17.544;2023-10-19T05:02:15;17.20;;;5.97;;
79229;SDS011;68663;49.122;17.544;2023-10-19T05:04:41;16.60;;;6.40;;
79229;SDS011;68663;49.122;17.544;2023-10-19T05:07:06;13.65;;;5.95;;
79229;SDS011;68663;49.122;17.544;2023-10-19T05:09:36;15.05;;;6.10;;
79229;SDS011;68663;49.122;17.544;2023-10-19T05:12:04;13.10;;;6.18;;
79229;SDS011;68663;49.122;17.544;2023-10-19T05:14:34;20.60;;;6.88;;
79229;SDS011;68663;49.122;17.544;2023-10-19T05:17:00;12.18;;;5.65;;
79229;SDS011;68663;49.122;17.544;2023-10-19T05:19:33;17.42;;;5.95;;
79229;SDS011;68663;49.122;17.544;2023-10-19T05:22:00;16.30;;;6.28;;
79229;SDS011;68663;49.122;17.544;2023-10-19T05:24:26;14.48;;;5.47;;
79229;SDS011;68663;49.122;17.544;2023-10-19T05:26:52;14.50;;;6.13;;
79229;SDS011;68663;49.122;17.544;2023-10-19T05:29:21;14.07;;;6.43;;
79229;SDS011;68663;49.122;17.544;2023-10-19T05:31:50;10.63;;;5.78;;
79229;SDS011;68663;49.122;17.544;2023-10-19T05:34:21;12.05;;;5.18;;
79229;SDS011;68663;49.122;17.544;2023-10-19T05:36:47;11.18;;;6.80;;
79229;SDS011;68663;49.122;17.544;2023-10-19T05:39:14;10.13;;;5.30;;
79229;SDS011;68663;49.122;17.544;2023-10-19T05:41:40;10.68;;;5.57;;
79229;SDS011;68663;49.122;17.544;2023-10-19T05:44:05;15.38;;;6.00;;
79229;SDS011;68663;49.122;17.544;2023-10-19T05:46:31;12.82;;;5.28;;
79229;SDS011;68663;49.122;17.544;2023-10-19T05:48:57;14.88;;;5.18;;
79229;SDS011;68663;49.122;17.544;2023-10-19T05:51:22;12.48;;;6.07;;
79229;SDS011;68663;49.122;17.544;2023-10-19T05:53:48;12.02;;;5.28;;
79229;SDS011;68663;49.122;17.544;2023-10-19T05:56:15;14.98;;;5.68;;
79229;SDS011;68663;49.122;17.544;2023-10-19T05:58:42;10.05;;;5.38;;
79229;SDS011;68663;49.122;17.544;2023-10-19T06:01:08;9.70;;;5.25;;
79229;SDS011;68663;49.122;17.544;2023-10-19T06:03:33;10.88;;;5.07;;
79229;SDS011;68663;49.122;17.544;2023-10-19T06:05:59;11.40;;;5.82;;
79229;SDS011;68663;49.122;17.544;2023-10-19T06:08:24;9.93;;;5.03;;
79229;SDS011;68663;49.122;17.544;2023-10-19T06:10:52;11.80;;;4.97;;
79229;SDS011;68663;49.122;17.544;2023-10-19T06:13:18;13.20;;;4.90;;
79229;SDS011;68663;49.122;17.544;2023-10-19T06:15:44;10.07;;;5.38;;
79229;SDS011;68663;49.122;17.544;2023-10-19T06:18:10;8.93;;;4.85;;
79229;SDS011;68663;49.122;17.544;2023-10-19T06:20:35;12.60;;;5.03;;
79229;SDS011;68663;49.122;17.544;2023-10-19T06:23:01;14.05;;;5.63;;
79229;SDS011;68663;49.122;17.544;2023-10-19T06:25:31;9.13;;;5.30;;
79229;SDS011;68663;49.122;17.544;2023-10-19T06:27:57;10.70;;;4.85;;
79229;SDS011;68663;49.122;17.544;2023-10-19T06:30:24;9.77;;;5.20;;
79229;SDS011;68663;49.122;17.544;2023-10-19T06:32:51;10.23;;;5.55;;
79229;SDS011;68663;49.122;17.544;2023-10-19T06:35:18;11.45;;;4.95;;
79229;SDS011;68663;49.122;17.544;2023-10-19T06:37:45;9.48;;;5.03;;
79229;SDS011;68663;49.122;17.544;2023-10-19T06:40:11;10.23;;;5.05;;
79229;SDS011;68663;49.122;17.544;2023-10-19T06:42:40;10.80;;;5.40;;
79229;SDS011;68663;49.122;17.544;2023-10-19T06:45:10;10.23;;;4.70;;
79229;SDS011;68663;49.122;17.544;2023-10-19T06:47:39;8.20;;;4.63;;
79229;SDS011;68663;49.122;17.544;2023-10-19T06:50:12;9.73;;;5.22;;
79229;SDS011;68663;49.122;17.544;2023-10-19T06:52:40;9.15;;;5.20;;
79229;SDS011;68663;49.122;17.544;2023-10-19T06:55:08;10.68;;;4.72;;
79229;SDS011;68663;49.122;17.544;2023-10-19T06:57:44;10.57;;;4.75;;
79229;SDS011;68663;49.122;17.544;2023-10-19T07:00:13;8.68;;;4.78;;
79229;SDS011;68663;49.122;17.544;2023-10-19T07:02:42;10.27;;;5.18;;
79229;SDS011;68663;49.122;17.544;2023-10-19T07:05:08;7.00;;;4.32;;
79229;SDS011;68663;49.122;17.544;2023-10-19T07:07:36;9.77;;;5.15;;
79229;SDS011;68663;49.122;17.544;2023-10-19T07:10:02;9.68;;;4.25;;
79229;SDS011;68663;49.122;17.544;2023-10-19T07:12:28;8.07;;;4.70;;
79229;SDS011;68663;49.122;17.544;2023-10-19T07:14:54;9.70;;;5.20;;
79229;SDS011;68663;49.122;17.544;2023-10-19T07:17:19;7.03;;;4.00;;
79229;SDS011;68663;49.122;17.544;2023-10-19T07:19:44;7.88;;;4.50;;
79229;SDS011;68663;49.122;17.544;2023-10-19T07:22:14;8.77;;;4.57;;
79229;SDS011;68663;49.122;17.544;2023-10-19T07:24:40;8.10;;;4.80;;
79229;SDS011;68663;49.122;17.544;2023-10-19T07:27:05;8.43;;;4.65;;
79229;SDS011;68663;49.122;17.544;2023-10-19T07:29:33;9.82;;;3.97;;
79229;SDS011;68663;49.122;17.544;2023-10-19T07:32:01;8.57;;;5.03;;
79229;SDS011;68663;49.122;17.544;2023-10-19T07:34:27;10.00;;;4.93;;
79229;SDS011;68663;49.122;17.544;2023-10-19T07:36:55;6.90;;;4.43;;
79229;SDS011;68663;49.122;17.544;2023-10-19T07:39:24;7.90;;;3.95;;
79229;SDS011;68663;49.122;17.544;2023-10-19T07:41:50;6.72;;;4.20;;
79229;SDS011;68663;49.122;17.544;2023-10-19T07:44:16;8.88;;;4.18;;
79229;SDS011;68663;49.122;17.544;2023-10-19T07:46:41;7.43;;;4.93;;
79229;SDS011;68663;49.122;17.544;2023-10-19T07:49:07;6.13;;;4.18;;
79229;SDS011;68663;49.122;17.544;2023-10-19T07:51:33;7.85;;;4.25;;
79229;SDS011;68663;49.122;17.544;2023-10-19T07:53:59;8.20;;;4.15;;
79229;SDS011;68663;49.122;17.544;2023-10-19T07:56:24;7.03;;;4.07;;
79229;SDS011;68663;49.122;17.544;2023-10-19T07:58:50;6.63;;;4.07;;
79229;SDS011;68663;49.122;17.544;2023-10-19T08:01:15;7.05;;;3.95;;
79229;SDS011;68663;49.122;17.544;2023-10-19T08:03:41;6.95;;;4.47;;
79229;SDS011;68663;49.122;17.544;2023-10-19T08:06:06;8.68;;;4.22;;
79229;SDS011;68663;49.122;17.544;2023-10-19T08:08:32;7.38;;;3.70;;
79229;SDS011;68663;49.122;17.544;2023-10-19T08:11:00;7.15;;;4.50;;
79229;SDS011;68663;49.122;17.544;2023-10-19T08:13:27;6.75;;;4.20;;
79229;SDS011;68663;49.122;17.544;2023-10-19T08:15:53;6.25;;;3.92;;
79229;SDS011;68663;49.122;17.544;2023-10-19T08:18:18;7.20;;;3.80;;
79229;SDS011;68663;49.122;17.544;2023-10-19T08:20:44;8.55;;;4.90;;
79229;SDS011;68663;49.122;17.544;2023-10-19T08:23:11;6.57;;;3.97;;
79229;SDS011;68663;49.122;17.544;2023-10-19T08:25:43;6.47;;;3.78;;
79229;SDS011;68663;49.122;17.544;2023-10-19T08:28:09;7.40;;;4.38;;
79229;SDS011;68663;49.122;17.544;2023-10-19T08:30:36;7.10;;;3.90;;
79229;SDS011;68663;49.122;17.544;2023-10-19T08:33:02;7.45;;;4.25;;
79229;SDS011;68663;49.122;17.544;2023-10-19T08:35:28;6.78;;;3.88;;
79229;SDS011;68663;49.122;17.544;2023-10-19T08:37:54;6.65;;;4.28;;
79229;SDS011;68663;49.122;17.544;2023-10-19T08:40:24;6.03;;;3.53;;
79229;SDS011;68663;49.122;17.544;2023-10-19T08:42:52;6.55;;;3.72;;
79229;SDS011;68663;49.122;17.544;2023-10-19T08:45:18;5.93;;;3.92;;
79229;SDS011;68663;49.122;17.544;2023-10-19T08:47:53;6.57;;;3.80;;
79229;SDS011;68663;49.122;17.544;2023-10-19T08:50:21;7.57;;;4.10;;
79229;SDS011;68663;49.122;17.544;2023-10-19T08:52:48;7.35;;;4.28;;
79229;SDS011;68663;49.122;17.544;2023-10-19T08:55:18;5.85;;;4.25;;
79229;SDS011;68663;49.122;17.544;2023-10-19T08:57:44;6.55;;;4.15;;
79229;SDS011;68663;49.122;17.544;2023-10-19T09:02:42;7.45;;;4.32;;
79229;SDS011;68663;49.122;17.544;2023-10-19T09:05:08;7.38;;;3.58;;
79229;SDS011;68663;49.122;17.544;2023-10-19T09:07:34;6.80;;;4.32;;
79229;SDS011;68663;49.122;17.544;2023-10-19T09:09:59;5.50;;;3.67;;
79229;SDS011;68663;49.122;17.544;2023-10-19T09:12:26;6.45;;;3.55;;
79229;SDS011;68663;49.122;17.544;2023-10-19T09:14:52;5.45;;;3.65;;
79229;SDS011;68663;49.122;17.544;2023-10-19T09:17:27;6.88;;;3.72;;
79229;SDS011;68663;49.122;17.544;2023-10-19T09:19:57;5.30;;;3.13;;
79229;SDS011;68663;49.122;17.544;2023-10-19T09:22:24;6.75;;;4.35;;
79229;SDS011;68663;49.122;17.544;2023-10-19T09:24:50;6.30;;;4.15;;
79229;SDS011;68663;49.122;17.544;2023-10-19T09:27:19;6.55;;;3.58;;
79229;SDS011;68663;49.122;17.544;2023-10-19T09:29:45;5.93;;;3.80;;
79229;SDS011;68663;49.122;17.544;2023-10-19T09:34:39;6.03;;;3.90;;
79229;SDS011;68663;49.122;17.544;2023-10-19T09:37:08;5.38;;;3.55;;
79229;SDS011;68663;49.122;17.544;2023-10-19T09:39:34;4.70;;;3.22;;
79229;SDS011;68663;49.122;17.544;2023-10-19T09:42:09;7.15;;;4.05;;
79229;SDS011;68663;49.122;17.544;2023-10-19T09:44:45;6.57;;;3.40;;
79229;SDS011;68663;49.122;17.544;2023-10-19T09:47:25;6.22;;;4.10;;
79229;SDS011;68663;49.122;17.544;2023-10-19T09:49:56;5.03;;;3.70;;
79229;SDS011;68663;49.122;17.544;2023-10-19T09:52:22;5.70;;;3.90;;
79229;SDS011;68663;49.122;17.544;2023-10-19T09:57:53;4.80;;;3.65;;
79229;SDS011;68663;49.122;17.544;2023-10-19T10:00:22;6.13;;;3.90;;
79229;SDS011;68663;49.122;17.544;2023-10-19T10:02:55;4.45;;;3.33;;
79229;SDS011;68663;49.122;17.544;2023-10-19T10:15:51;3.90;;;3.03;;
79229;SDS011;68663;49.122;17.544;2023-10-19T10:20:43;5.97;;;4.03;;
79229;SDS011;68663;49.122;17.544;2023-10-19T10:23:16;4.78;;;3.45;;
79229;SDS011;68663;49.122;17.544;2023-10-19T10:25:45;3.72;;;3.00;;
79229;SDS011;68663;49.122;17.544;2023-10-19T10:28:13;5.93;;;3.83;;
79229;SDS011;68663;49.122;17.544;2023-10-19T10:31:06;5.38;;;3.75;;
79229;SDS011;68663;49.122;17.544;2023-10-19T10:36:17;4.10;;;3.30;;
79229;SDS011;68663;49.122;17.544;2023-10-19T10:38:48;4.50;;;3.33;;
79229;SDS011;68663;49.122;17.544;2023-10-19T10:41:21;5.60;;;3.75;;
79229;SDS011;68663;49.122;17.544;2023-10-19T10:43:48;4.82;;;3.53;;
79229;SDS011;68663;49.122;17.544;2023-10-19T10:46:21;5.80;;;3.67;;
79229;SDS011;68663;49.122;17.544;2023-10-19T10:48:50;5.07;;;3.42;;
79229;SDS011;68663;49.122;17.544;2023-10-19T10:53:48;5.22;;;3.40;;
79229;SDS011;68663;49.122;17.544;2023-10-19T10:56:18;5.30;;;3.50;;
79229;SDS011;68663;49.122;17.544;2023-10-19T10:58:45;6.15;;;3.53;;
79229;SDS011;68663;49.122;17.544;2023-10-19T11:01:11;4.28;;;3.60;;
79229;SDS011;68663;49.122;17.544;2023-10-19T11:03:38;4.45;;;3.13;;
79229;SDS011;68663;49.122;17.544;2023-10-19T11:06:07;4.28;;;3.22;;
79229;SDS011;68663;49.122;17.544;2023-10-19T11:08:34;4.50;;;3.72;;
79229;SDS011;68663;49.122;17.544;2023-10-19T11:11:07;5.07;;;3.25;;
79229;SDS011;68663;49.122;17.544;2023-10-19T11:13:36;4.97;;;3.60;;
79229;SDS011;68663;49.122;17.544;2023-10-19T11:16:03;4.22;;;3.50;;
79229;SDS011;68663;49.122;17.544;2023-10-19T11:21:11;5.78;;;3.40;;
79229;SDS011;68663;49.122;17.544;2023-10-19T11:23:46;4.40;;;3.00;;
79229;SDS011;68663;49.122;17.544;2023-10-19T11:26:15;4.55;;;2.95;;
79229;SDS011;68663;49.122;17.544;2023-10-19T11:28:41;4.55;;;3.33;;
79229;SDS011;68663;49.122;17.544;2023-10-19T11:31:20;4.35;;;3.45;;
79229;SDS011;68663;49.122;17.544;2023-10-19T11:33:48;6.47;;;3.70;;
79229;SDS011;68663;49.122;17.544;2023-10-19T11:36:16;4.35;;;3.10;;
79229;SDS011;68663;49.122;17.544;2023-10-19T11:38:42;4.38;;;3.42;;
79229;SDS011;68663;49.122;17.544;2023-10-19T11:41:09;5.32;;;3.30;;
79229;SDS011;68663;49.122;17.544;2023-10-19T11:43:36;4.03;;;3.20;;
79229;SDS011;68663;49.122;17.544;2023-10-19T11:46:01;4.20;;;3.15;;
79229;SDS011;68663;49.122;17.544;2023-10-19T11:48:31;3.65;;;2.92;;
79229;SDS011;68663;49.122;17.544;2023-10-19T11:50:58;4.00;;;3.10;;
79229;SDS011;68663;49.122;17.544;2023-10-19T11:53:24;4.65;;;3.35;;
79229;SDS011;68663;49.122;17.544;2023-10-19T11:55:49;4.50;;;3.50;;
79229;SDS011;68663;49.122;17.544;2023-10-19T11:58:15;4.97;;;3.22;;
79229;SDS011;68663;49.122;17.544;2023-10-19T12:00:40;4.38;;;3.22;;
79229;SDS011;68663;49.122;17.544;2023-10-19T12:03:09;5.25;;;3.70;;
79229;SDS011;68663;49.122;17.544;2023-10-19T12:05:35;3.55;;;2.95;;
79229;SDS011;68663;49.122;17.544;2023-10-19T12:08:02;4.10;;;3.10;;
79229;SDS011;68663;49.122;17.544;2023-10-19T12:10:28;4.30;;;3.17;;
79229;SDS011;68663;49.122;17.544;2023-10-19T12:13:03;4.30;;;3.03;;
79229;SDS011;68663;49.122;17.544;2023-10-19T12:15:31;4.32;;;3.08;;
79229;SDS011;68663;49.122;17.544;2023-10-19T12:17:57;4.43;;;3.15;;
79229;SDS011;68663;49.122;17.544;2023-10-19T12:20:23;5.25;;;3.38;;
79229;SDS011;68663;49.122;17.544;2023-10-19T12:22:49;3.92;;;3.03;;
79229;SDS011;68663;49.122;17.544;2023-10-19T12:25:25;4.32;;;3.40;;
79229;SDS011;68663;49.122;17.544;2023-10-19T12:30:22;4.55;;;3.05;;
79229;SDS011;68663;49.122;17.544;2023-10-19T12:32:51;4.25;;;3.25;;
79229;SDS011;68663;49.122;17.544;2023-10-19T12:35:19;4.60;;;2.95;;
79229;SDS011;68663;49.122;17.544;2023-10-19T12:37:49;4.82;;;3.20;;
79229;SDS011;68663;49.122;17.544;2023-10-19T12:40:18;3.60;;;3.08;;
79229;SDS011;68663;49.122;17.544;2023-10-19T12:42:53;3.67;;;3.00;;
79229;SDS011;68663;49.122;17.544;2023-10-19T12:45:20;3.55;;;3.08;;
79229;SDS011;68663;49.122;17.544;2023-10-19T12:47:49;4.72;;;3.28;;
79229;SDS011;68663;49.122;17.544;2023-10-19T12:50:17;4.40;;;2.95;;
79229;SDS011;68663;49.122;17.544;2023-10-19T12:52:44;3.85;;;3.40;;
79229;SDS011;68663;49.122;17.544;2023-10-19T12:55:10;3.88;;;3.33;;
79229;SDS011;68663;49.122;17.544;2023-10-19T12:57:36;4.00;;;3.08;;
79229;SDS011;68663;49.122;17.544;2023-10-19T13:00:01;5.75;;;3.38;;
79229;SDS011;68663;49.122;17.544;2023-10-19T13:02:45;3.65;;;2.83;;
79229;SDS011;68663;49.122;17.544;2023-10-19T13:05:11;4.10;;;3.00;;
79229;SDS011;68663;49.122;17.544;2023-10-19T13:07:41;3.92;;;3.10;;
79229;SDS011;68663;49.122;17.544;2023-10-19T13:10:06;3.70;;;3.00;;
79229;SDS011;68663;49.122;17.544;2023-10-19T13:12:32;3.65;;;3.13;;
79229;SDS011;68663;49.122;17.544;2023-10-19T13:14:57;3.88;;;2.72;;
79229;SDS011;68663;49.122;17.544;2023-10-19T13:17:23;5.10;;;3.23;;
79229;SDS011;68663;49.122;17.544;2023-10-19T13:19:49;4.05;;;3.47;;
79229;SDS011;68663;49.122;17.544;2023-10-19T13:22:20;3.53;;;2.83;;
79229;SDS011;68663;49.122;17.544;2023-10-19T13:24:46;3.72;;;3.33;;
79229;SDS011;68663;49.122;17.544;2023-10-19T13:27:12;3.38;;;2.80;;
79229;SDS011;68663;49.122;17.544;2023-10-19T13:29:38;3.42;;;3.00;;
79229;SDS011;68663;49.122;17.544;2023-10-19T13:32:06;3.95;;;3.03;;
79229;SDS011;68663;49.122;17.544;2023-10-19T13:34:32;4.05;;;3.25;;
79229;SDS011;68663;49.122;17.544;2023-10-19T13:36:57;3.95;;;2.97;;
79229;SDS011;68663;49.122;17.544;2023-10-19T13:39:23;3.35;;;2.97;;
79229;SDS011;68663;49.122;17.544;2023-10-19T13:41:50;3.05;;;2.75;;
79229;SDS011;68663;49.122;17.544;2023-10-19T13:44:17;4.15;;;3.10;;
79229;SDS011;68663;49.122;17.544;2023-10-19T13:46:45;3.28;;;2.53;;
79229;SDS011;68663;49.122;17.544;2023-10-19T13:49:11;4.03;;;2.63;;
79229;SDS011;68663;49.122;17.544;2023-10-19T13:51:37;4.72;;;2.70;;
79229;SDS011;68663;49.122;17.544;2023-10-19T13:54:04;3.90;;;3.10;;
79229;SDS011;68663;49.122;17.544;2023-10-19T13:56:30;3.83;;;3.22;;
79229;SDS011;68663;49.122;17.544;2023-10-19T13:58:55;3.58;;;2.75;;
79229;SDS011;68663;49.122;17.544;2023-10-19T14:01:21;2.83;;;2.60;;
79229;SDS011;68663;49.122;17.544;2023-10-19T14:03:50;3.28;;;2.92;;
79229;SDS011;68663;49.122;17.544;2023-10-19T14:06:17;3.70;;;2.75;;
79229;SDS011;68663;49.122;17.544;2023-10-19T14:08:43;3.97;;;3.08;;
79229;SDS011;68663;49.122;17.544;2023-10-19T14:11:08;3.28;;;2.70;;
79229;SDS011;68663;49.122;17.544;2023-10-19T14:13:34;3.97;;;3.28;;
79229;SDS011;68663;49.122;17.544;2023-10-19T14:16:06;4.68;;;3.08;;
79229;SDS011;68663;49.122;17.544;2023-10-19T14:18:32;3.47;;;2.92;;
79229;SDS011;68663;49.122;17.544;2023-10-19T14:20:58;4.35;;;3.17;;
79229;SDS011;68663;49.122;17.544;2023-10-19T14:23:23;3.90;;;3.30;;
79229;SDS011;68663;49.122;17.544;2023-10-19T14:25:49;4.10;;;3.30;;
79229;SDS011;68663;49.122;17.544;2023-10-19T14:28:15;4.20;;;3.05;;
79229;SDS011;68663;49.122;17.544;2023-10-19T14:30:40;3.20;;;2.85;;
79229;SDS011;68663;49.122;17.544;2023-10-19T14:33:06;3.93;;;3.03;;
79229;SDS011;68663;49.122;17.544;2023-10-19T14:35:36;3.50;;;2.75;;
79229;SDS011;68663;49.122;17.544;2023-10-19T14:38:04;4.22;;;3.40;;
79229;SDS011;68663;49.122;17.544;2023-10-19T14:40:31;4.60;;;3.40;;
79229;SDS011;68663;49.122;17.544;2023-10-19T14:42:57;3.58;;;2.80;;
79229;SDS011;68663;49.122;17.544;2023-10-19T14:45:26;4.85;;;3.10;;
79229;SDS011;68663;49.122;17.544;2023-10-19T14:47:53;3.88;;;3.00;;
79229;SDS011;68663;49.122;17.544;2023-10-19T14:50:20;3.30;;;2.58;;
79229;SDS011;68663;49.122;17.544;2023-10-19T14:52:47;3.50;;;2.72;;
79229;SDS011;68663;49.122;17.544;2023-10-19T14:55:15;3.22;;;2.92;;
79229;SDS011;68663;49.122;17.544;2023-10-19T14:57:44;3.83;;;2.72;;
79229;SDS011;68663;49.122;17.544;2023-10-19T15:00:13;3.55;;;2.85;;
79229;SDS011;68663;49.122;17.544;2023-10-19T15:02:44;4.10;;;2.55;;
79229;SDS011;68663;49.122;17.544;2023-10-19T15:05:10;3.47;;;2.95;;
79229;SDS011;68663;49.122;17.544;2023-10-19T15:07:39;4.03;;;2.72;;
79229;SDS011;68663;49.122;17.544;2023-10-19T15:10:07;3.78;;;2.90;;
79229;SDS011;68663;49.122;17.544;2023-10-19T15:12:35;3.38;;;2.70;;
79229;SDS011;68663;49.122;17.544;2023-10-19T15:15:01;3.00;;;2.70;;
79229;SDS011;68663;49.122;17.544;2023-10-19T15:17:27;3.30;;;2.88;;
79229;SDS011;68663;49.122;17.544;2023-10-19T15:19:52;3.05;;;2.58;;
79229;SDS011;68663;49.122;17.544;2023-10-19T15:22:18;4.90;;;2.83;;
79229;SDS011;68663;49.122;17.544;2023-10-19T15:24:44;3.70;;;2.63;;
79229;SDS011;68663;49.122;17.544;2023-10-19T15:27:09;3.67;;;3.03;;